Alat, Azerbaijan

8:28 PM AZST on August 21, 2014 (GMT +0500)
Bina | Change Station
CLOSE
Current Station
Airport
Location: Baku,
Elevation: 0 ft
Nearby Weather Stations

Elev 0 ft 40.45 °N, 50.07 °E | Updated 28 minutes ago

Scattered Clouds
Scattered Clouds
81 °F
Feels Like 86 °F
N
22
Wind Variable Wind from North

Today
High -- | Low -- °F
--% Chance of Precip.
Yesterday
High -- | Low -- °F
Precip. -- in
6:59 AM 8:31 PM
Waning Crescent, 14% visible
Pressure 29.89 in
Visibility 6.2 miles
Clouds Scattered Clouds 1400 ft
Heat Index 86 °F
Dew Point 75 °F
Humidity 84%
Rainfall 0.00 in
Snow Depth Not available.
UV 0 out of 12
Pollen Not available.
Air Quality Not available.
Flu Activity Not available.
METAR UBBB 211500Z 36019KT 9999 SCT014 27/24 Q1012 88CLRD70 NOSIG

More Conditions Fewer Conditions

Pressure 29.89 in
Visibility 6.2 miles
Clouds Scattered Clouds 1400 ft
Heat Index 86 °F
Dew Point 75 °F
Humidity 84%
Rainfall 0.00 in
Snow Depth Not available.
UV 0 out of 12
Pollen Not available.
Air Quality Not available.
Flu Activity Not available.
METAR UBBB 211500Z 36019KT 9999 SCT014 27/24 Q1012 88CLRD70 NOSIG

More Conditions Fewer Conditions

10-Day Weather Forecast

Almanac

Astronomy

Aug. 21, 2014 Rise Set
Actual Time 6:59 AM AZST 8:31 PM AZST
Civil Twilight 6:30 AM AZST 8:59 PM AZST
Nautical Twilight 5:56 AM AZST 9:33 PM AZST
Astronomical Twilight 5:19 AM AZST 10:10 PM AZST
Moon 3:10 AM AZST 5:43 PM AZST
Length of Visible Light 14h 28m
Length of Day
13h 31m
Tomorrow will be 2m 24s shorter.
Waning Crescent, 14% of the Moon is Illuminated
Today
Waning Crescent
Aug 25
New
Sep 2
First Quarter
Sep 8
Full
Sep 15
Last Quarter

Today's Extremes

Country Highs Country Lows

Community

WunderPhotos

Upload Photos

1,745,947 photos uploaded!

Nearby

Snow Depth

Not available.

Earthquake Activity

City Distance Mag. Time & Date
No recent earthquake activity has been reported nearby.
Minimum magnitude displayed is 2.5.

Coastal Water Temperatures

Place Temperature
No Stations Reporting

Nearby Weather Stations